Vilas, Indiana
Current Conditions -  °F | °C
As of 12:53 AM on Monday 22 Dec 2014 (Local Time) from KBMG Reporting Station
Clear Clear  
Wind Chill: 22°   Ceiling: Unl
Heat Index: 29°   Visibility: 8mi
Dew Point: 26°   Wind: 7mph
Humidity: 89%   Direction: 110°ESE
Pressure: 30.02"   Gusts: NA
Location:  39.3008°N, 86.8112°W
Report Text: KBMG 220553Z AUTO 11006KT 8SM CLR M02/M03 A3002 RMK AO2 SLP174 T10171033 10000 21017 58019
Loading
Personal Weather Stations






























Interactive Weather Map New forecast layout! Learn more

10-Day Weather Forecast

Advertisements
Track Severe Weather on mobile